Time;durP1;ratioP1;P1;durP2;ratioP2;P2;SDS_P1;SDS_P2;PMS_P1;PMS_P2;Temp;Humidity;BMP_temperature;BMP_pressure;BME280_temperature;BME280_humidity;BME280_pressure;Samples;Min_cycle;Max_cycle;Signal;HPM_P1;HPM_P2
2023/02/04 00:01:17;;;;;;;10.35;2.72;;;;;;;5.21;96.14;100071.66;5104188;28;20024;-71
2023/02/04 00:03:43;;;;;;;10.35;1.98;;;;;;;5.12;96.77;100075.81;5103921;28;20020;-71
2023/02/04 00:06:09;;;;;;;8.80;2.30;;;;;;;4.77;96.42;100018.94;5105726;28;20066;-70
2023/02/04 00:08:36;;;;;;;10.65;2.63;;;;;;;4.74;97.38;100030.63;5077880;28;20020;-70
2023/02/04 00:11:02;;;;;;;14.25;2.75;;;;;;;4.82;98.04;100053.16;5106875;28;20104;-71
2023/02/04 00:13:27;;;;;;;9.70;2.00;;;;;;;4.85;97.99;100064.44;5104635;28;20110;-71
2023/02/04 00:15:53;;;;;;;11.25;2.33;;;;;;;4.71;98.03;100045.94;5101035;28;20135;-70
2023/02/04 00:18:18;;;;;;;14.57;2.22;;;;;;;4.81;98.09;100044.38;5081203;28;20059;-70
2023/02/04 00:20:44;;;;;;;12.77;2.20;;;;;;;4.75;98.01;100028.84;5106818;28;20111;-71
2023/02/04 00:23:09;;;;;;;10.02;2.33;;;;;;;4.95;97.58;100065.50;5106237;28;20043;-70
2023/02/04 00:25:35;;;;;;;12.07;2.28;;;;;;;4.72;97.58;100013.13;5082182;28;20028;-71
2023/02/04 00:28:00;;;;;;;6.88;2.70;;;;;;;5.01;98.07;100069.53;5103027;28;20028;-71
2023/02/04 00:30:26;;;;;;;10.18;2.20;;;;;;;4.89;97.23;100038.50;5105028;28;20027;-70
2023/02/04 00:32:53;;;;;;;12.60;2.20;;;;;;;4.74;97.92;100032.44;5104054;28;20027;-70
2023/02/04 00:35:19;;;;;;;11.32;2.78;;;;;;;4.67;98.17;100012.56;5102086;28;20035;-70
2023/02/04 00:37:45;;;;;;;8.77;2.22;;;;;;;4.73;97.57;100022.78;5085010;28;20036;-71
2023/02/04 00:40:11;;;;;;;10.13;2.72;;;;;;;5.09;96.62;100068.06;5106775;27;20059;-71
2023/02/04 00:42:37;;;;;;;12.55;2.67;;;;;;;5.14;96.35;100063.28;5104617;28;20076;-71
2023/02/04 00:45:02;;;;;;;6.55;1.95;;;;;;;4.86;96.93;100031.59;5104150;28;20110;-70
2023/02/04 00:47:28;;;;;;;13.52;2.45;;;;;;;5.05;96.07;100050.63;5098967;28;20031;-71
2023/02/04 00:49:53;;;;;;;14.30;2.25;;;;;;;4.92;95.78;100038.28;5086322;28;20080;-72
2023/02/04 00:52:19;;;;;;;7.70;2.15;;;;;;;4.94;96.15;100025.75;5088311;28;20036;-71
2023/02/04 00:54:45;;;;;;;11.57;3.22;;;;;;;5.07;95.80;100043.41;5106232;28;20031;-70
2023/02/04 00:57:10;;;;;;;11.40;2.55;;;;;;;4.87;95.56;100005.88;5102660;28;20106;-70
2023/02/04 00:59:36;;;;;;;9.63;2.80;;;;;;;5.21;95.71;100069.00;5105286;28;20115;-71
2023/02/04 01:02:01;;;;;;;9.95;2.90;;;;;;;4.94;95.86;100001.84;5105540;27;20052;-71
2023/02/04 01:04:28;;;;;;;13.32;2.88;;;;;;;5.23;95.13;100044.03;5103461;28;20023;-72
2023/02/04 01:06:53;;;;;;;11.07;2.40;;;;;;;5.14;94.93;100018.09;5101863;28;20564;-71
2023/02/04 01:09:19;;;;;;;11.63;3.03;;;;;;;5.21;94.88;100024.69;5105983;28;20036;-71
2023/02/04 01:11:45;;;;;;;14.55;2.92;;;;;;;5.43;94.57;100064.75;5083918;28;20079;-71
2023/02/04 01:14:11;;;;;;;10.50;3.53;;;;;;;5.27;95.65;100050.84;5105164;28;20425;-72
2023/02/04 01:16:37;;;;;;;7.93;2.63;;;;;;;5.36;96.27;100052.84;5101561;28;20034;-71
2023/02/04 01:19:03;;;;;;;11.40;3.00;;;;;;;5.37;95.46;100051.88;5102114;28;20118;-72
2023/02/04 01:21:29;;;;;;;5.68;2.08;;;;;;;5.37;95.57;100054.53;5103264;28;20024;-71
2023/02/04 01:23:57;;;;;;;9.57;3.17;;;;;;;5.21;95.74;100035.31;5100845;28;20315;-71
2023/02/04 01:26:22;;;;;;;12.25;2.72;;;;;;;5.07;95.56;100011.50;5083523;28;20672;-71
2023/02/04 01:28:49;;;;;;;8.30;2.63;;;;;;;5.08;95.98;100002.56;5095401;28;20035;-71
2023/02/04 01:31:14;;;;;;;10.48;2.30;;;;;;;5.26;95.23;100008.41;5100649;28;20036;-71
2023/02/04 01:33:40;;;;;;;15.93;2.47;;;;;;;5.31;95.23;100008.91;5098216;27;20030;-71
2023/02/04 01:36:05;;;;;;;6.65;2.45;;;;;;;5.11;95.56;99989.06;5102825;28;20020;-71
2023/02/04 01:38:31;;;;;;;9.90;2.63;;;;;;;5.39;94.50;99999.44;5105559;28;20116;-71
2023/02/04 01:40:57;;;;;;;9.32;2.60;;;;;;;5.48;95.20;100029.84;5104812;28;20016;-71
2023/02/04 01:43:23;;;;;;;13.45;3.53;;;;;;;5.44;95.09;100031.88;5097818;27;20042;-72
2023/02/04 01:45:49;;;;;;;8.52;2.53;;;;;;;5.59;94.80;100027.25;5085658;28;20684;-71
2023/02/04 01:48:22;;;;;;;10.90;2.58;;;;;;;5.19;93.68;99972.59;5096756;28;20027;-72
2023/02/04 01:50:53;;;;;;;6.85;2.05;;;;;;;5.41;94.98;100000.16;5100448;27;20051;-71
2023/02/04 01:53:22;;;;;;;8.30;2.38;;;;;;;5.20;95.14;99975.13;5103464;28;20085;-71
2023/02/04 01:55:48;;;;;;;7.13;2.40;;;;;;;5.42;95.19;100006.34;5106770;28;20019;-71
2023/02/04 01:58:15;;;;;;;10.65;2.17;;;;;;;5.16;95.03;99975.47;5097447;28;20084;-71
2023/02/04 02:00:41;;;;;;;6.55;2.28;;;;;;;5.28;95.53;99987.84;5103791;28;20016;-71
2023/02/04 02:03:09;;;;;;;13.15;2.58;;;;;;;5.24;95.93;99999.69;5101059;28;20073;-71
2023/02/04 02:05:49;;;;;;;8.57;2.70;;;;;;;5.37;96.16;100005.81;5104134;28;20019;-71
2023/02/04 02:08:15;;;;;;;10.07;2.55;;;;;;;5.02;96.34;99968.47;5100380;28;20043;-71
2023/02/04 02:10:45;;;;;;;10.00;2.30;;;;;;;5.28;96.33;100009.97;5102667;28;20040;-71
2023/02/04 02:13:14;;;;;;;9.07;2.38;;;;;;;5.34;96.19;100014.00;5098792;28;20036;-70
2023/02/04 02:15:40;;;;;;;14.88;2.65;;;;;;;5.26;96.16;100009.25;5087465;28;20153;-71
2023/02/04 02:18:06;;;;;;;9.38;2.28;;;;;;;5.04;97.16;99973.66;5104500;28;20023;-71
2023/02/04 02:20:32;;;;;;;7.93;2.90;;;;;;;5.27;97.48;100023.38;5082561;28;20026;-71
2023/02/04 02:23:31;;;;;;;10.88;2.20;;;;;;;5.35;97.27;100021.88;5100034;28;20483;-71
2023/02/04 02:25:57;;;;;;;8.50;2.67;;;;;;;5.09;97.58;99982.19;5081657;28;20127;-71
2023/02/04 02:28:23;;;;;;;10.32;2.35;;;;;;;5.31;97.56;100016.88;5099065;28;20118;-71
2023/02/04 02:30:49;;;;;;;5.40;2.13;;;;;;;5.20;97.62;99996.41;5101476;28;20032;-70
2023/02/04 02:33:18;;;;;;;6.15;2.00;;;;;;;4.98;98.44;99971.44;5098437;27;20032;-70
2023/02/04 02:35:47;;;;;;;7.32;2.13;;;;;;;5.11;99.18;100002.38;5087449;28;20497;-70
2023/02/04 02:38:14;;;;;;;6.72;1.88;;;;;;;5.34;98.20;100025.50;5101278;28;20529;-70
2023/02/04 02:40:40;;;;;;;8.85;2.08;;;;;;;5.20;97.53;99984.91;5084999;28;20490;-70
2023/02/04 02:43:08;;;;;;;5.30;1.92;;;;;;;5.27;97.57;99983.50;5099160;28;20487;-71
2023/02/04 02:45:34;;;;;;;6.57;2.40;;;;;;;5.40;97.61;100002.94;5099715;28;20053;-70
2023/02/04 02:48:03;;;;;;;9.13;1.88;;;;;;;5.29;95.43;99957.69;5104500;28;20007;-70
2023/02/04 02:50:30;;;;;;;6.88;1.85;;;;;;;5.49;95.96;99987.19;5080642;28;20027;-70
2023/02/04 02:52:57;;;;;;;6.78;1.92;;;;;;;5.42;95.33;99985.91;5076151;28;20027;-71
2023/02/04 02:55:25;;;;;;;4.57;1.50;;;;;;;5.72;93.95;100026.28;5103712;28;20030;-71
2023/02/04 02:57:52;;;;;;;7.50;2.35;;;;;;;5.64;94.18;99988.72;5102791;28;20383;-71
2023/02/04 03:00:22;;;;;;;8.55;2.40;;;;;;;5.84;93.75;100006.75;5101088;28;20758;-71
2023/02/04 03:03:03;;;;;;;6.65;2.17;;;;;;;5.85;93.79;100010.28;5085000;28;20023;-71
2023/02/04 03:05:32;;;;;;;7.80;2.05;;;;;;;5.77;94.17;100007.31;5100004;28;20542;-71
2023/02/04 03:07:58;;;;;;;7.63;1.98;;;;;;;5.90;93.27;99987.69;5099716;28;20782;-71
2023/02/04 03:10:24;;;;;;;9.20;2.17;;;;;;;5.81;93.38;99993.69;5080058;28;20114;-71
2023/02/04 03:12:50;;;;;;;4.22;1.77;;;;;;;5.75;93.71;99991.47;5104225;28;20030;-70
2023/02/04 03:15:16;;;;;;;13.55;2.42;;;;;;;5.88;94.08;99997.63;5082514;28;20043;-71
2023/02/04 03:17:43;;;;;;;8.60;2.50;;;;;;;5.91;93.28;99983.22;5084383;28;20019;-70
2023/02/04 03:20:10;;;;;;;9.70;2.00;;;;;;;6.01;93.61;100011.72;5097753;28;20093;-70
2023/02/04 03:22:35;;;;;;;11.75;2.15;;;;;;;5.95;94.11;100004.19;5103290;28;20019;-71
2023/02/04 03:25:01;;;;;;;10.85;2.38;;;;;;;5.87;94.28;99993.22;5102790;28;20031;-71
2023/02/04 03:27:27;;;;;;;4.53;1.73;;;;;;;5.89;93.52;99980.69;5103035;28;21715;-71
2023/02/04 03:29:53;;;;;;;7.53;2.15;;;;;;;5.92;92.95;99969.81;5098648;28;20024;-70
2023/02/04 03:32:18;;;;;;;7.43;2.35;;;;;;;6.13;92.76;100000.13;5100673;28;20034;-70
2023/02/04 03:34:44;;;;;;;9.73;3.15;;;;;;;6.09;92.13;100001.31;5102776;28;20028;-70
2023/02/04 03:37:09;;;;;;;6.63;2.08;;;;;;;5.96;93.59;99997.03;5105015;28;20023;-70
2023/02/04 03:39:35;;;;;;;7.15;1.95;;;;;;;5.97;93.74;100004.88;5106509;28;20028;-71
2023/02/04 03:42:00;;;;;;;7.95;2.08;;;;;;;5.94;93.65;99983.00;5107909;28;20378;-71
2023/02/04 03:44:26;;;;;;;6.32;1.80;;;;;;;5.64;92.97;99934.69;5104974;28;20039;-70
2023/02/04 03:46:54;;;;;;;6.47;1.70;;;;;;;5.87;92.88;99966.63;5079904;28;20053;-70
2023/02/04 03:49:20;;;;;;;10.73;2.40;;;;;;;5.90;92.90;99960.25;5103644;28;20575;-71
2023/02/04 03:51:46;;;;;;;3.20;1.85;;;;;;;5.87;92.74;99971.94;5103009;28;20032;-70
2023/02/04 03:54:12;;;;;;;6.90;2.20;;;;;;;5.90;92.27;99949.59;5104989;28;20510;-71
2023/02/04 03:56:38;;;;;;;9.10;1.90;;;;;;;5.88;92.48;99955.03;5100941;28;20043;-71
2023/02/04 03:59:03;;;;;;;7.40;2.20;;;;;;;5.87;92.12;99950.66;5084729;28;20051;-71
2023/02/04 04:01:28;;;;;;;6.03;1.63;;;;;;;5.81;91.61;99943.13;5083633;28;20020;-71
2023/02/04 04:03:54;;;;;;;12.30;2.95;;;;;;;5.68;91.63;99921.00;5085805;28;20494;-70
2023/02/04 04:06:19;;;;;;;6.35;2.10;;;;;;;5.87;91.41;99963.13;5107400;28;20047;-71
2023/02/04 04:08:45;;;;;;;6.68;1.73;;;;;;;5.67;91.77;99950.41;5096612;28;20039;-70
2023/02/04 04:11:10;;;;;;;10.25;2.40;;;;;;;5.94;91.67;99981.16;5104833;28;20035;-70
2023/02/04 04:13:36;;;;;;;10.07;2.20;;;;;;;5.59;91.34;99912.88;5084460;28;20043;-70
2023/02/04 04:16:03;;;;;;;15.57;2.45;;;;;;;6.01;90.21;99957.63;5098055;28;20043;-71
2023/02/04 04:18:29;;;;;;;11.18;2.53;;;;;;;5.97;90.53;99970.28;5086784;27;20040;-71
2023/02/04 04:20:54;;;;;;;14.60;2.97;;;;;;;5.72;90.13;99927.84;5106256;27;20475;-71
2023/02/04 04:23:20;;;;;;;10.55;2.53;;;;;;;5.73;90.27;99931.31;5082018;28;20124;-71
2023/02/04 04:25:45;;;;;;;8.25;2.42;;;;;;;5.80;90.59;99952.03;5103740;28;20054;-70
2023/02/04 04:28:11;;;;;;;12.00;2.33;;;;;;;5.88;90.85;99962.16;5103072;28;20020;-70
2023/02/04 04:30:36;;;;;;;9.65;2.40;;;;;;;5.74;91.03;99944.50;5098416;28;20028;-71
2023/02/04 04:33:02;;;;;;;10.30;2.72;;;;;;;5.99;90.03;99960.41;5100666;28;20050;-71
2023/02/04 04:35:27;;;;;;;8.85;2.17;;;;;;;5.81;89.49;99927.16;5084192;27;20023;-71
2023/02/04 04:37:53;;;;;;;7.65;2.25;;;;;;;5.65;88.61;99901.78;5102294;28;20053;-71
2023/02/04 04:40:18;;;;;;;10.98;2.60;;;;;;;5.86;89.44;99929.47;5084303;28;20024;-71
2023/02/04 04:42:43;;;;;;;10.05;2.80;;;;;;;5.98;90.00;99952.53;5102698;28;20016;-70
2023/02/04 04:45:10;;;;;;;7.03;1.95;;;;;;;5.96;90.11;99960.63;5082688;27;20160;-70
2023/02/04 04:47:36;;;;;;;7.63;1.92;;;;;;;5.89;88.74;99921.25;5078389;28;20028;-70
2023/02/04 04:50:03;;;;;;;9.48;2.00;;;;;;;5.99;87.98;99931.13;5082445;28;20051;-70
2023/02/04 04:52:28;;;;;;;13.18;2.38;;;;;;;6.15;88.02;99955.63;5083631;28;20035;-70
2023/02/04 04:54:53;;;;;;;6.13;1.50;;;;;;;5.90;87.47;99920.31;5084431;28;20188;-70
2023/02/04 04:57:19;;;;;;;8.52;2.63;;;;;;;5.85;88.86;99936.63;5102911;28;20842;-71
2023/02/04 04:59:44;;;;;;;4.70;1.92;;;;;;;5.89;87.60;99906.16;5102752;28;20039;-71
2023/02/04 05:02:10;;;;;;;10.27;1.63;;;;;;;6.07;87.78;99930.53;5097693;28;20028;-71
2023/02/04 05:04:35;;;;;;;13.65;1.80;;;;;;;6.29;87.29;99962.56;5101859;27;20387;-70
2023/02/04 05:07:01;;;;;;;6.03;1.35;;;;;;;6.19;87.36;99949.09;5102287;27;20438;-70
2023/02/04 05:09:26;;;;;;;8.57;1.77;;;;;;;6.22;88.81;99971.97;5101552;28;20475;-70
2023/02/04 05:11:51;;;;;;;10.07;2.00;;;;;;;5.91;90.41;99909.56;5102647;28;20088;-71
2023/02/04 05:14:17;;;;;;;9.93;2.95;;;;;;;6.27;90.31;99961.81;5105007;28;20024;-71
2023/02/04 05:16:42;;;;;;;9.20;1.95;;;;;;;6.17;89.91;99943.06;5090317;28;20050;-70
2023/02/04 05:19:08;;;;;;;7.47;1.42;;;;;;;6.10;90.17;99940.97;5101763;28;20046;-71
2023/02/04 05:21:33;;;;;;;8.05;1.67;;;;;;;6.10;90.20;99935.63;5103420;27;20038;-70
2023/02/04 05:23:59;;;;;;;10.05;1.90;;;;;;;5.96;91.24;99912.72;5097036;27;20032;-71
2023/02/04 05:26:26;;;;;;;6.25;1.48;;;;;;;6.03;91.95;99945.06;5100881;28;20024;-71
2023/02/04 05:28:51;;;;;;;4.70;1.73;;;;;;;6.14;91.83;99956.59;5105157;27;20163;-71
2023/02/04 05:31:17;;;;;;;7.55;1.70;;;;;;;6.10;93.27;99955.09;5101358;27;20107;-71
2023/02/04 05:33:42;;;;;;;9.73;1.80;;;;;;;5.89;94.79;99954.06;5105063;27;20047;-71
2023/02/04 05:36:08;;;;;;;7.47;2.17;;;;;;;6.06;95.33;99948.31;5100664;28;20043;-71
2023/02/04 05:38:33;;;;;;;8.15;1.88;;;;;;;5.86;95.82;99933.00;5105660;28;20039;-71
2023/02/04 05:40:58;;;;;;;8.25;1.55;;;;;;;6.12;96.95;99966.50;5104332;28;20030;-71
2023/02/04 05:43:24;;;;;;;6.65;1.67;;;;;;;6.16;95.91;99945.81;5094588;27;20117;-71
2023/02/04 05:45:49;;;;;;;7.97;1.70;;;;;;;6.06;96.16;99934.19;5080523;28;20046;-71
2023/02/04 05:48:15;;;;;;;14.10;2.75;;;;;;;6.08;97.13;99954.38;5079827;28;20066;-72
2023/02/04 05:50:40;;;;;;;6.72;2.03;;;;;;;6.05;98.43;99961.75;5105596;28;20102;-72
2023/02/04 05:53:06;;;;;;;12.27;2.33;;;;;;;5.89;98.20;99938.09;5100723;28;20028;-72
2023/02/04 05:55:31;;;;;;;8.52;2.35;;;;;;;6.06;97.56;99932.34;5079220;28;20028;-71
2023/02/04 05:57:56;;;;;;;7.95;1.90;;;;;;;5.93;96.62;99907.63;5102390;28;20042;-70
2023/02/04 06:00:22;;;;;;;9.27;2.08;;;;;;;5.78;96.75;99916.75;5083852;28;20149;-71
2023/02/04 06:02:47;;;;;;;14.05;2.80;;;;;;;6.08;96.27;99962.38;5099882;28;20156;-70
2023/02/04 06:05:13;;;;;;;8.40;2.10;;;;;;;6.01;97.61;99947.84;5103371;28;20031;-71
2023/02/04 06:07:38;;;;;;;9.57;2.95;;;;;;;5.88;97.76;99925.75;5095420;28;20062;-71
2023/02/04 06:10:04;;;;;;;10.88;2.38;;;;;;;5.95;96.24;99913.69;5084306;28;20031;-71
2023/02/04 06:12:29;;;;;;;9.80;2.05;;;;;;;6.19;93.29;99929.63;5099931;28;20498;-71
2023/02/04 06:14:55;;;;;;;9.43;1.95;;;;;;;6.15;93.13;99936.13;5084303;28;20127;-71
2023/02/04 06:17:20;;;;;;;8.40;2.40;;;;;;;6.00;93.57;99908.84;5089780;28;20446;-70
2023/02/04 06:19:46;;;;;;;6.05;2.00;;;;;;;6.15;91.60;99912.16;5095786;28;20093;-71
2023/02/04 06:22:11;;;;;;;4.68;1.40;;;;;;;6.10;89.75;99904.53;5081763;28;20088;-71
2023/02/04 06:24:37;;;;;;;10.40;2.50;;;;;;;5.92;89.58;99870.47;5080685;28;20024;-70
2023/02/04 06:27:03;;;;;;;6.15;1.58;;;;;;;6.03;89.71;99903.28;5099296;28;20027;-70
2023/02/04 06:29:28;;;;;;;4.75;1.40;;;;;;;5.95;87.38;99862.25;5092004;28;20028;-71
2023/02/04 06:31:53;;;;;;;6.40;1.65;;;;;;;6.19;88.97;99921.63;5096728;28;20028;-70
2023/02/04 06:34:19;;;;;;;8.10;1.70;;;;;;;6.11;89.51;99916.03;5076269;28;20067;-71
2023/02/04 06:36:44;;;;;;;6.13;1.60;;;;;;;6.21;87.14;99891.25;5080239;28;20035;-70
2023/02/04 06:39:10;;;;;;;6.68;2.10;;;;;;;6.28;87.20;99916.44;5091789;28;20487;-70
2023/02/04 06:41:35;;;;;;;5.88;1.55;;;;;;;6.28;86.59;99910.25;5079892;28;20106;-72
2023/02/04 06:44:00;;;;;;;3.67;1.35;;;;;;;6.24;85.42;99872.38;5081311;28;20024;-71
2023/02/04 06:46:26;;;;;;;2.65;1.08;;;;;;;6.13;84.37;99850.22;5099144;28;20031;-71
2023/02/04 06:48:51;;;;;;;7.38;1.60;;;;;;;6.45;85.56;99915.16;5076201;28;20091;-71
2023/02/04 06:51:17;;;;;;;5.40;1.77;;;;;;;6.04;85.78;99841.13;5089379;28;23057;-71
2023/02/04 06:53:44;;;;;;;4.05;1.60;;;;;;;6.37;84.83;99889.13;5097341;28;20035;-71
2023/02/04 06:56:10;;;;;;;6.50;2.38;;;;;;;6.21;85.32;99853.97;5095029;28;20400;-70
2023/02/04 06:58:36;;;;;;;5.13;1.52;;;;;;;6.34;83.63;99910.66;5077877;28;20023;-71
2023/02/04 07:01:01;;;;;;;2.92;0.90;;;;;;;6.19;83.70;99906.50;5082189;28;20434;-71
2023/02/04 07:03:27;;;;;;;1.90;1.10;;;;;;;6.28;83.94;99912.91;5081048;28;20386;-70
2023/02/04 07:05:53;;;;;;;2.40;1.60;;;;;;;6.06;82.59;99879.09;5101882;28;20028;-70
2023/02/04 07:08:20;;;;;;;5.22;1.30;;;;;;;6.17;83.27;99923.56;5105930;27;20031;-70
2023/02/04 07:10:46;;;;;;;2.25;1.00;;;;;;;6.16;82.44;99929.84;5104812;27;20040;-70
2023/02/04 07:13:11;;;;;;;3.28;1.00;;;;;;;5.99;82.16;99916.94;5106433;28;20032;-70
2023/02/04 07:15:37;;;;;;;2.50;0.82;;;;;;;6.16;80.30;99930.69;5101902;28;20051;-70
2023/02/04 07:18:02;;;;;;;2.33;1.10;;;;;;;6.26;79.07;99950.31;5105663;28;20028;-71
2023/02/04 07:20:28;;;;;;;2.03;0.90;;;;;;;5.99;79.43;99931.13;5106574;27;20035;-71
2023/02/04 07:22:53;;;;;;;3.08;0.90;;;;;;;5.81;79.26;99923.63;5100029;28;20028;-70
2023/02/04 07:25:19;;;;;;;0.88;0.63;;;;;;;5.83;79.92;99957.19;5100204;27;20122;-70
2023/02/04 07:27:44;;;;;;;5.35;1.15;;;;;;;5.83;78.56;99951.00;5084150;28;20043;-70
2023/02/04 07:30:10;;;;;;;1.45;1.00;;;;;;;5.97;79.26;99969.47;5109371;27;20691;-71
2023/02/04 07:32:36;;;;;;;2.05;1.00;;;;;;;5.77;77.02;99941.63;5082025;27;20093;-70
2023/02/04 07:35:01;;;;;;;0.98;0.70;;;;;;;5.85;77.38;99952.59;5084301;28;20032;-70
2023/02/04 07:37:27;;;;;;;2.08;0.60;;;;;;;5.94;76.44;99961.72;5103334;27;20031;-71
2023/02/04 07:39:52;;;;;;;1.75;0.88;;;;;;;5.83;75.94;99974.94;5102487;27;21010;-71
2023/02/04 07:42:18;;;;;;;2.20;0.73;;;;;;;5.70;76.28;99948.38;5103674;27;20063;-70
2023/02/04 07:44:43;;;;;;;0.75;0.70;;;;;;;5.95;75.45;99974.91;5087222;28;20039;-71
2023/02/04 07:47:09;;;;;;;1.23;0.80;;;;;;;6.06;74.65;99982.09;5099964;27;20547;-70
2023/02/04 07:49:34;;;;;;;2.17;1.00;;;;;;;6.21;73.95;100010.22;5097992;27;20039;-70
2023/02/04 07:51:59;;;;;;;1.77;0.88;;;;;;;5.95;74.54;100008.63;5108263;27;20031;-77
2023/02/04 07:54:25;;;;;;;2.05;1.00;;;;;;;6.13;72.80;100015.28;5082064;28;20035;-76
2023/02/04 07:56:50;;;;;;;2.90;1.48;;;;;;;5.94;74.41;100031.72;5101604;28;20027;-76
2023/02/04 07:59:16;;;;;;;2.65;0.82;;;;;;;5.73;73.32;99990.72;5105918;28;20049;-79
2023/02/04 08:01:41;;;;;;;1.80;0.95;;;;;;;5.71;74.42;100018.41;5107119;27;20036;-77
2023/02/04 08:04:06;;;;;;;1.38;0.90;;;;;;;5.68;74.87;100037.25;5100665;27;20036;-77
2023/02/04 08:06:32;;;;;;;2.15;1.00;;;;;;;5.80;73.71;100044.34;5106150;27;20053;-76
2023/02/04 08:08:57;;;;;;;2.85;0.93;;;;;;;5.62;73.54;100032.34;5103900;28;20064;-77
2023/02/04 08:11:23;;;;;;;2.80;1.42;;;;;;;5.83;72.33;100049.44;5089866;28;20115;-77
2023/02/04 08:13:48;;;;;;;4.32;1.67;;;;;;;5.66;74.20;100048.00;5105411;28;20034;-78
2023/02/04 08:16:14;;;;;;;2.38;1.42;;;;;;;5.68;75.18;100067.34;5082979;28;20135;-78
2023/02/04 08:18:39;;;;;;;2.00;1.17;;;;;;;5.89;71.25;100057.00;5098741;27;20085;-77
2023/02/04 08:21:05;;;;;;;2.08;1.40;;;;;;;5.95;72.13;100068.06;5095378;28;20027;-77
2023/02/04 08:23:31;;;;;;;1.98;1.48;;;;;;;5.92;72.86;100064.75;5079053;28;20035;-77
2023/02/04 08:25:57;;;;;;;2.22;1.52;;;;;;;6.00;71.25;100057.06;5102972;28;20051;-70
2023/02/04 08:28:23;;;;;;;4.68;1.92;;;;;;;6.04;69.69;100022.13;5072169;28;20055;-70
2023/02/04 08:30:49;;;;;;;1.77;1.45;;;;;;;6.41;67.98;100062.81;5092464;28;20027;-70
2023/02/04 08:33:14;;;;;;;2.10;1.40;;;;;;;6.29;68.10;100066.44;5098522;28;20054;-69
2023/02/04 08:35:39;;;;;;;2.65;1.90;;;;;;;6.24;69.50;100095.19;5101170;28;20034;-70
2023/02/04 08:38:05;;;;;;;2.95;1.90;;;;;;;6.01;67.97;100033.00;5103740;28;20024;-69
2023/02/04 08:40:31;;;;;;;3.85;1.92;;;;;;;6.16;67.43;100087.75;5099153;28;20024;-69
2023/02/04 08:42:56;;;;;;;5.22;2.42;;;;;;;5.86;67.07;100050.09;5102447;28;20035;-69
2023/02/04 08:45:21;;;;;;;2.92;1.92;;;;;;;6.10;67.17;100109.50;5103494;28;20034;-69
2023/02/04 08:47:47;;;;;;;4.78;2.50;;;;;;;5.85;67.68;100077.66;5096312;28;20039;-70
2023/02/04 08:50:12;;;;;;;4.75;2.10;;;;;;;6.03;65.75;100104.75;5108413;28;20031;-70
2023/02/04 08:52:38;;;;;;;4.65;2.70;;;;;;;5.80;66.49;100094.91;5094880;28;20059;-76
2023/02/04 08:55:04;;;;;;;3.28;2.55;;;;;;;5.76;67.63;100114.69;5093822;28;21085;-76
2023/02/04 08:57:29;;;;;;;4.18;2.47;;;;;;;5.97;66.56;100147.78;5084887;28;20024;-77
2023/02/04 08:59:55;;;;;;;4.05;2.70;;;;;;;5.73;67.76;100131.72;5084619;28;20042;-77
2023/02/04 09:02:20;;;;;;;4.60;2.72;;;;;;;5.73;67.11;100153.00;5111415;28;20036;-76
2023/02/04 09:04:46;;;;;;;5.60;3.47;;;;;;;5.82;66.19;100175.47;5100990;28;20024;-77
2023/02/04 09:07:11;;;;;;;6.00;3.65;;;;;;;5.84;66.15;100185.06;5093615;28;20036;-76
2023/02/04 09:09:37;;;;;;;4.85;3.25;;;;;;;6.04;63.76;100173.00;5110489;28;20072;-75
2023/02/04 09:12:02;;;;;;;5.07;3.50;;;;;;;5.98;63.80;100182.28;5107491;28;20128;-76
2023/02/04 09:14:28;;;;;;;5.32;3.65;;;;;;;5.74;64.92;100165.34;5107333;28;20168;-75
2023/02/04 09:16:53;;;;;;;4.85;3.10;;;;;;;5.73;66.13;100198.22;5100125;28;20055;-75
2023/02/04 09:19:24;;;;;;;5.50;3.67;;;;;;;5.78;66.05;100169.50;5098641;28;20026;-75
2023/02/04 09:21:50;;;;;;;9.45;4.40;;;;;;;5.86;65.71;100179.63;5085951;28;20129;-75
2023/02/04 09:24:16;;;;;;;7.13;3.80;;;;;;;5.77;66.35;100199.72;5092667;28;20062;-75
2023/02/04 09:26:41;;;;;;;11.25;4.32;;;;;;;5.80;65.90;100196.00;5109246;28;20074;-75
2023/02/04 09:29:06;;;;;;;5.45;3.38;;;;;;;5.93;65.80;100227.00;5100026;28;20039;-76
2023/02/04 09:31:32;;;;;;;6.00;3.28;;;;;;;6.26;62.98;100237.06;5103243;28;20028;-75
2023/02/04 09:33:58;;;;;;;15.10;6.30;;;;;;;6.13;63.05;100252.22;5110680;28;20043;-75
2023/02/04 09:36:27;;;;;;;9.88;4.80;;;;;;;6.14;63.27;100252.13;5103193;28;20020;-76
2023/02/04 09:38:52;;;;;;;7.88;4.55;;;;;;;5.88;63.60;100236.25;5108842;28;20557;-76
2023/02/04 09:41:18;;;;;;;9.10;5.30;;;;;;;6.36;62.04;100267.41;5089778;28;20031;-75
2023/02/04 09:43:45;;;;;;;5.65;4.03;;;;;;;6.02;62.54;100258.28;5073698;28;20039;-76
2023/02/04 09:46:22;;;;;;;8.35;4.70;;;;;;;5.98;63.77;100261.28;5093688;28;20486;-75
2023/02/04 09:48:48;;;;;;;5.30;3.75;;;;;;;6.08;62.32;100291.63;5109446;28;20133;-75
2023/02/04 09:51:18;;;;;;;4.97;3.53;;;;;;;6.09;63.32;100303.97;5091037;28;20024;-75
2023/02/04 09:53:44;;;;;;;6.60;3.92;;;;;;;5.97;63.68;100310.16;5110059;28;20112;-75
2023/02/04 09:56:11;;;;;;;6.22;3.95;;;;;;;6.11;62.26;100310.91;5099521;28;20493;-75
2023/02/04 09:58:37;;;;;;;4.97;3.35;;;;;;;5.92;63.12;100313.13;5109888;28;20636;-75
2023/02/04 10:01:14;;;;;;;5.68;3.63;;;;;;;5.91;63.22;100291.94;5075607;28;20015;-75
2023/02/04 10:03:45;;;;;;;6.20;3.80;;;;;;;6.03;62.35;100302.56;5086415;28;20169;-75
2023/02/04 10:06:15;;;;;;;6.40;3.17;;;;;;;5.95;63.44;100328.88;5109963;28;20016;-75
2023/02/04 10:08:42;;;;;;;5.55;3.40;;;;;;;5.71;63.82;100342.97;5091275;28;20026;-76
2023/02/04 10:11:08;;;;;;;5.20;3.05;;;;;;;5.61;64.47;100353.38;5096713;28;20159;-75
2023/02/04 10:13:40;;;;;;;5.05;3.30;;;;;;;5.62;63.75;100368.41;5107614;28;20027;-75
2023/02/04 10:16:14;;;;;;;4.45;3.00;;;;;;;5.49;64.12;100372.84;5083342;28;20083;-75
2023/02/04 10:18:40;;;;;;;5.38;3.78;;;;;;;5.56;64.46;100373.25;5090337;28;20015;-75
2023/02/04 10:21:23;;;;;;;14.13;7.20;;;;;;;5.72;63.59;100387.25;5092334;28;20035;-76
2023/02/04 10:23:52;;;;;;;11.60;5.90;;;;;;;5.62;63.53;100400.31;5078820;28;20085;-75
2023/02/04 10:26:19;;;;;;;7.43;4.40;;;;;;;5.51;63.45;100389.53;5093046;28;20036;-75
2023/02/04 10:28:44;;;;;;;7.25;3.47;;;;;;;5.48;64.42;100405.69;5102569;28;20089;-75
2023/02/04 10:31:47;;;;;;;7.13;2.97;;;;;;;5.47;64.06;100413.75;5088964;28;20039;-75
2023/02/04 10:34:14;;;;;;;5.72;3.08;;;;;;;5.48;63.85;100420.81;4976276;28;20663;-74
2023/02/04 10:36:42;;;;;;;3.45;2.20;;;;;;;5.45;64.61;100435.13;5077115;28;20043;-74
2023/02/04 10:39:15;;;;;;;3.75;1.95;;;;;;;5.40;65.70;100450.56;5093844;28;20023;-75
2023/02/04 10:41:55;;;;;;;3.22;2.25;;;;;;;5.38;69.97;100454.28;5097213;28;20103;-76
2023/02/04 10:44:30;;;;;;;6.13;2.17;;;;;;;5.19;72.45;100470.53;5087957;28;20426;-75
2023/02/04 10:47:14;;;;;;;3.33;2.28;;;;;;;5.07;73.44;100466.00;5093173;28;20069;-75
2023/02/04 10:49:40;;;;;;;4.38;1.65;;;;;;;4.98;72.75;100461.25;5090124;28;20035;-75
2023/02/04 10:52:15;;;;;;;7.38;3.03;;;;;;;5.12;72.12;100479.00;5082662;28;20049;-75
2023/02/04 10:54:42;;;;;;;3.47;1.88;;;;;;;5.10;71.23;100494.19;5092143;28;20050;-75
2023/02/04 10:57:28;;;;;;;3.03;1.80;;;;;;;5.05;70.82;100504.25;5097600;28;20023;-75
2023/02/04 10:59:57;;;;;;;6.15;2.80;;;;;;;5.18;69.11;100499.88;5090940;28;20520;-75
2023/02/04 11:02:35;;;;;;;4.63;2.22;;;;;;;5.22;69.42;100518.19;5079087;28;20111;-77
2023/02/04 11:05:01;;;;;;;3.25;1.90;;;;;;;5.05;66.68;100510.41;5074030;28;20043;-75
2023/02/04 11:07:26;;;;;;;2.38;1.67;;;;;;;5.32;65.49;100519.31;5088445;28;20372;-76
2023/02/04 11:09:52;;;;;;;2.90;1.65;;;;;;;5.49;64.14;100552.84;5093286;28;20085;-76
2023/02/04 11:12:21;;;;;;;6.30;2.80;;;;;;;5.26;64.96;100527.72;5073502;28;20055;-76
2023/02/04 11:14:57;;;;;;;2.85;1.80;;;;;;;5.41;65.26;100563.09;5077108;28;20127;-76
2023/02/04 11:17:34;;;;;;;2.47;1.52;;;;;;;5.42;65.26;100554.19;5081548;28;20928;-74
2023/02/04 11:20:12;;;;;;;2.22;1.58;;;;;;;5.34;65.28;100553.78;5072740;28;20491;-75
2023/02/04 11:22:43;;;;;;;3.00;1.67;;;;;;;5.59;65.48;100570.78;5100495;28;20459;-75
2023/02/04 11:25:32;;;;;;;3.45;1.80;;;;;;;5.51;65.05;100586.34;5092134;28;20036;-75
2023/02/04 11:27:57;;;;;;;3.50;1.40;;;;;;;5.45;64.70;100578.75;5078177;28;20031;-76
2023/02/04 11:30:23;;;;;;;3.47;1.88;;;;;;;5.36;65.52;100613.94;5081392;28;20032;-75
2023/02/04 11:33:01;;;;;;;1.67;1.58;;;;;;;5.30;66.37;100613.44;5092649;28;20487;-76